sensor_id;sensor_type;location;lat;lon;timestamp;temperature;humidity
71184;DHT22;58887;51.980;4.464;2022-12-07T00:01:16;6.15;87.60
71184;DHT22;58887;51.980;4.464;2022-12-07T00:03:44;6.24;87.35
71184;DHT22;58887;51.980;4.464;2022-12-07T00:06:12;6.25;86.70
71184;DHT22;58887;51.980;4.464;2022-12-07T00:08:38;6.25;85.27
71184;DHT22;58887;51.980;4.464;2022-12-07T00:11:14;6.31;84.76
71184;DHT22;58887;51.980;4.464;2022-12-07T00:13:40;6.36;84.58
71184;DHT22;58887;51.980;4.464;2022-12-07T00:16:12;6.38;83.91
71184;DHT22;58887;51.980;4.464;2022-12-07T00:18:37;6.34;83.27
71184;DHT22;58887;51.980;4.464;2022-12-07T00:21:04;6.25;83.01
71184;DHT22;58887;51.980;4.464;2022-12-07T00:23:30;6.17;82.65
71184;DHT22;58887;51.980;4.464;2022-12-07T00:25:55;5.98;82.42
71184;DHT22;58887;51.980;4.464;2022-12-07T00:28:21;5.89;83.70
71184;DHT22;58887;51.980;4.464;2022-12-07T00:30:46;5.87;83.48
71184;DHT22;58887;51.980;4.464;2022-12-07T00:33:11;5.73;83.32
71184;DHT22;58887;51.980;4.464;2022-12-07T00:35:37;5.65;83.49
71184;DHT22;58887;51.980;4.464;2022-12-07T00:38:02;5.55;83.23
71184;DHT22;58887;51.980;4.464;2022-12-07T00:40:28;5.49;83.58
71184;DHT22;58887;51.980;4.464;2022-12-07T00:42:53;5.42;83.60
71184;DHT22;58887;51.980;4.464;2022-12-07T00:45:19;5.38;83.45
71184;DHT22;58887;51.980;4.464;2022-12-07T00:47:44;5.21;83.23
71184;DHT22;58887;51.980;4.464;2022-12-07T00:50:09;5.02;83.26
71184;DHT22;58887;51.980;4.464;2022-12-07T00:52:35;4.94;83.65
71184;DHT22;58887;51.980;4.464;2022-12-07T00:55:00;4.83;83.17
71184;DHT22;58887;51.980;4.464;2022-12-07T00:57:26;4.68;83.23
71184;DHT22;58887;51.980;4.464;2022-12-07T00:59:51;4.61;83.57
71184;DHT22;58887;51.980;4.464;2022-12-07T01:02:21;4.57;83.84
71184;DHT22;58887;51.980;4.464;2022-12-07T01:04:47;4.46;84.36
71184;DHT22;58887;51.980;4.464;2022-12-07T01:07:12;4.42;84.11
71184;DHT22;58887;51.980;4.464;2022-12-07T01:09:38;4.39;84.12
71184;DHT22;58887;51.980;4.464;2022-12-07T01:12:03;4.40;84.38
71184;DHT22;58887;51.980;4.464;2022-12-07T01:14:29;4.39;84.46
71184;DHT22;58887;51.980;4.464;2022-12-07T01:16:54;4.30;84.42
71184;DHT22;58887;51.980;4.464;2022-12-07T01:19:20;4.26;84.27
71184;DHT22;58887;51.980;4.464;2022-12-07T01:21:45;4.19;84.15
71184;DHT22;58887;51.980;4.464;2022-12-07T01:24:11;4.17;84.21
71184;DHT22;58887;51.980;4.464;2022-12-07T01:26:37;4.09;84.49
71184;DHT22;58887;51.980;4.464;2022-12-07T01:29:02;4.06;84.58
71184;DHT22;58887;51.980;4.464;2022-12-07T01:31:28;3.99;84.48
71184;DHT22;58887;51.980;4.464;2022-12-07T01:33:58;4.01;84.69
71184;DHT22;58887;51.980;4.464;2022-12-07T01:36:30;4.01;84.79
71184;DHT22;58887;51.980;4.464;2022-12-07T01:38:59;3.98;84.62
71184;DHT22;58887;51.980;4.464;2022-12-07T01:41:27;3.84;84.20
71184;DHT22;58887;51.980;4.464;2022-12-07T01:54:34;4.36;89.11
71184;DHT22;58887;51.980;4.464;2022-12-07T01:57:03;4.73;88.48
71184;DHT22;58887;51.980;4.464;2022-12-07T01:59:31;4.97;87.53
71184;DHT22;58887;51.980;4.464;2022-12-07T02:01:56;5.07;87.20
71184;DHT22;58887;51.980;4.464;2022-12-07T02:04:23;5.16;86.95
71184;DHT22;58887;51.980;4.464;2022-12-07T02:06:50;5.15;86.21
71184;DHT22;58887;51.980;4.464;2022-12-07T02:09:16;5.08;85.82
71184;DHT22;58887;51.980;4.464;2022-12-07T02:11:42;5.05;85.62
71184;DHT22;58887;51.980;4.464;2022-12-07T02:14:08;4.97;85.38
71184;DHT22;58887;51.980;4.464;2022-12-07T02:16:49;4.92;85.14
71184;DHT22;58887;51.980;4.464;2022-12-07T02:19:32;4.88;85.10
71184;DHT22;58887;51.980;4.464;2022-12-07T02:25:13;4.58;84.62
71184;DHT22;58887;51.980;4.464;2022-12-07T02:28:07;4.49;84.72
71184;DHT22;58887;51.980;4.464;2022-12-07T02:30:44;4.37;84.81
71184;DHT22;58887;51.980;4.464;2022-12-07T02:33:18;4.43;86.36
71184;DHT22;58887;51.980;4.464;2022-12-07T02:41:12;4.53;86.07
71184;DHT22;58887;51.980;4.464;2022-12-07T02:43:45;4.53;85.73
71184;DHT22;58887;51.980;4.464;2022-12-07T02:46:17;4.45;85.41
71184;DHT22;58887;51.980;4.464;2022-12-07T02:48:46;4.35;85.21
71184;DHT22;58887;51.980;4.464;2022-12-07T02:51:12;4.28;85.38
71184;DHT22;58887;51.980;4.464;2022-12-07T02:53:41;4.23;85.55
71184;DHT22;58887;51.980;4.464;2022-12-07T02:58:54;4.43;85.63
71184;DHT22;58887;51.980;4.464;2022-12-07T03:04:45;4.37;85.85
71184;DHT22;58887;51.980;4.464;2022-12-07T03:10:33;4.42;87.72
71184;DHT22;58887;51.980;4.464;2022-12-07T03:18:28;5.01;87.09
71184;DHT22;58887;51.980;4.464;2022-12-07T03:21:00;5.04;86.38
71184;DHT22;58887;51.980;4.464;2022-12-07T03:23:29;5.01;86.03
71184;DHT22;58887;51.980;4.464;2022-12-07T03:26:00;5.09;86.11
71184;DHT22;58887;51.980;4.464;2022-12-07T03:28:34;5.14;86.29
71184;DHT22;58887;51.980;4.464;2022-12-07T03:36:46;5.25;85.93
71184;DHT22;58887;51.980;4.464;2022-12-07T03:41:51;5.16;85.60
71184;DHT22;58887;51.980;4.464;2022-12-07T03:44:18;5.16;85.66
71184;DHT22;58887;51.980;4.464;2022-12-07T03:47:23;5.22;85.68
71184;DHT22;58887;51.980;4.464;2022-12-07T03:50:18;5.29;85.49
71184;DHT22;58887;51.980;4.464;2022-12-07T03:52:54;5.34;85.20
71184;DHT22;58887;51.980;4.464;2022-12-07T03:55:31;5.32;84.77
71184;DHT22;58887;51.980;4.464;2022-12-07T03:58:09;5.19;84.46
71184;DHT22;58887;51.980;4.464;2022-12-07T04:00:35;5.09;84.40
71184;DHT22;58887;51.980;4.464;2022-12-07T04:03:01;5.14;84.46
71184;DHT22;58887;51.980;4.464;2022-12-07T04:05:27;5.05;84.30
71184;DHT22;58887;51.980;4.464;2022-12-07T04:07:52;4.97;84.39
71184;DHT22;58887;51.980;4.464;2022-12-07T04:10:18;4.88;84.47
71184;DHT22;58887;51.980;4.464;2022-12-07T04:12:44;4.88;84.49
71184;DHT22;58887;51.980;4.464;2022-12-07T04:15:10;4.85;84.32
71184;DHT22;58887;51.980;4.464;2022-12-07T04:17:35;4.78;84.47
71184;DHT22;58887;51.980;4.464;2022-12-07T04:20:01;4.78;84.82
71184;DHT22;58887;51.980;4.464;2022-12-07T04:22:26;4.77;84.86
71184;DHT22;58887;51.980;4.464;2022-12-07T04:24:52;4.74;84.67
71184;DHT22;58887;51.980;4.464;2022-12-07T04:27:17;4.70;84.44
71184;DHT22;58887;51.980;4.464;2022-12-07T04:29:43;4.61;84.50
71184;DHT22;58887;51.980;4.464;2022-12-07T04:32:08;4.57;84.42
71184;DHT22;58887;51.980;4.464;2022-12-07T04:34:34;4.50;84.47
71184;DHT22;58887;51.980;4.464;2022-12-07T04:36:59;4.43;84.62
71184;DHT22;58887;51.980;4.464;2022-12-07T04:39:29;4.36;84.73
71184;DHT22;58887;51.980;4.464;2022-12-07T04:41:56;4.33;84.77
71184;DHT22;58887;51.980;4.464;2022-12-07T04:44:22;4.28;84.75
71184;DHT22;58887;51.980;4.464;2022-12-07T04:46:49;4.16;84.61
71184;DHT22;58887;51.980;4.464;2022-12-07T04:49:14;4.12;84.66
71184;DHT22;58887;51.980;4.464;2022-12-07T04:51:40;4.09;84.93
71184;DHT22;58887;51.980;4.464;2022-12-07T04:54:06;4.16;84.92
71184;DHT22;58887;51.980;4.464;2022-12-07T04:56:32;4.09;84.51
71184;DHT22;58887;51.980;4.464;2022-12-07T04:58:59;4.01;84.47
71184;DHT22;58887;51.980;4.464;2022-12-07T05:01:25;3.95;84.55
71184;DHT22;58887;51.980;4.464;2022-12-07T05:03:50;3.91;84.59
71184;DHT22;58887;51.980;4.464;2022-12-07T05:06:16;3.77;84.54
71184;DHT22;58887;51.980;4.464;2022-12-07T05:08:42;3.61;84.38
71184;DHT22;58887;51.980;4.464;2022-12-07T05:11:09;3.46;84.35
71184;DHT22;58887;51.980;4.464;2022-12-07T05:13:55;3.38;84.81
71184;DHT22;58887;51.980;4.464;2022-12-07T05:16:22;3.43;85.25
71184;DHT22;58887;51.980;4.464;2022-12-07T05:18:47;3.67;86.20
71184;DHT22;58887;51.980;4.464;2022-12-07T05:21:13;3.84;86.27
71184;DHT22;58887;51.980;4.464;2022-12-07T05:23:38;3.86;86.26
71184;DHT22;58887;51.980;4.464;2022-12-07T05:26:04;3.79;86.09
71184;DHT22;58887;51.980;4.464;2022-12-07T05:28:29;3.81;85.90
71184;DHT22;58887;51.980;4.464;2022-12-07T05:30:55;3.82;85.90
71184;DHT22;58887;51.980;4.464;2022-12-07T05:33:20;3.86;85.85
71184;DHT22;58887;51.980;4.464;2022-12-07T05:35:45;3.81;85.47
71184;DHT22;58887;51.980;4.464;2022-12-07T05:38:11;3.78;85.31
71184;DHT22;58887;51.980;4.464;2022-12-07T05:40:36;3.67;85.06
71184;DHT22;58887;51.980;4.464;2022-12-07T05:43:02;3.57;84.88
71184;DHT22;58887;51.980;4.464;2022-12-07T05:45:27;3.43;84.72
71184;DHT22;58887;51.980;4.464;2022-12-07T05:47:53;3.36;84.80
71184;DHT22;58887;51.980;4.464;2022-12-07T05:50:19;3.36;84.90
71184;DHT22;58887;51.980;4.464;2022-12-07T05:52:44;3.30;84.97
71184;DHT22;58887;51.980;4.464;2022-12-07T05:55:10;3.23;84.82
71184;DHT22;58887;51.980;4.464;2022-12-07T05:57:35;3.17;84.88
71184;DHT22;58887;51.980;4.464;2022-12-07T06:00:01;3.09;84.52
71184;DHT22;58887;51.980;4.464;2022-12-07T06:02:26;3.03;84.56
71184;DHT22;58887;51.980;4.464;2022-12-07T06:04:52;3.00;84.71
71184;DHT22;58887;51.980;4.464;2022-12-07T06:07:17;3.13;85.15
71184;DHT22;58887;51.980;4.464;2022-12-07T06:09:43;3.13;85.06
71184;DHT22;58887;51.980;4.464;2022-12-07T06:12:12;3.06;84.86
71184;DHT22;58887;51.980;4.464;2022-12-07T06:14:57;3.02;85.01
71184;DHT22;58887;51.980;4.464;2022-12-07T06:17:22;3.05;85.16
71184;DHT22;58887;51.980;4.464;2022-12-07T06:19:48;3.02;85.17
71184;DHT22;58887;51.980;4.464;2022-12-07T06:22:13;3.06;85.34
71184;DHT22;58887;51.980;4.464;2022-12-07T06:24:39;3.09;85.37
71184;DHT22;58887;51.980;4.464;2022-12-07T06:27:05;3.03;85.06
71184;DHT22;58887;51.980;4.464;2022-12-07T06:29:31;2.96;84.91
71184;DHT22;58887;51.980;4.464;2022-12-07T06:31:57;2.89;84.92
71184;DHT22;58887;51.980;4.464;2022-12-07T06:34:24;2.82;84.71
71184;DHT22;58887;51.980;4.464;2022-12-07T06:36:51;2.78;84.71
71184;DHT22;58887;51.980;4.464;2022-12-07T06:39:20;2.74;85.02
71184;DHT22;58887;51.980;4.464;2022-12-07T06:41:46;2.93;85.62
71184;DHT22;58887;51.980;4.464;2022-12-07T06:44:11;2.96;85.23
71184;DHT22;58887;51.980;4.464;2022-12-07T06:46:37;2.92;85.30
71184;DHT22;58887;51.980;4.464;2022-12-07T06:49:04;2.93;85.16
71184;DHT22;58887;51.980;4.464;2022-12-07T06:51:30;2.97;85.50
71184;DHT22;58887;51.980;4.464;2022-12-07T06:53:56;3.06;85.89
71184;DHT22;58887;51.980;4.464;2022-12-07T06:56:22;3.09;86.29
71184;DHT22;58887;51.980;4.464;2022-12-07T06:58:48;3.22;86.55
71184;DHT22;58887;51.980;4.464;2022-12-07T07:01:16;3.33;86.65
71184;DHT22;58887;51.980;4.464;2022-12-07T07:03:43;3.56;86.63
71184;DHT22;58887;51.980;4.464;2022-12-07T07:06:09;3.68;86.51
71184;DHT22;58887;51.980;4.464;2022-12-07T07:08:36;3.74;86.12
71184;DHT22;58887;51.980;4.464;2022-12-07T07:11:02;3.70;85.94
71184;DHT22;58887;51.980;4.464;2022-12-07T07:13:28;3.65;85.88
71184;DHT22;58887;51.980;4.464;2022-12-07T07:15:54;3.68;85.73
71184;DHT22;58887;51.980;4.464;2022-12-07T07:18:19;3.60;85.44
71184;DHT22;58887;51.980;4.464;2022-12-07T07:20:45;3.46;85.08
71184;DHT22;58887;51.980;4.464;2022-12-07T07:23:10;3.37;84.94
71184;DHT22;58887;51.980;4.464;2022-12-07T07:25:36;3.34;85.07
71184;DHT22;58887;51.980;4.464;2022-12-07T07:28:02;3.28;85.07
71184;DHT22;58887;51.980;4.464;2022-12-07T07:30:27;3.27;85.08
71184;DHT22;58887;51.980;4.464;2022-12-07T07:33:00;3.28;85.62
71184;DHT22;58887;51.980;4.464;2022-12-07T07:35:28;3.34;86.57
71184;DHT22;58887;51.980;4.464;2022-12-07T07:37:53;3.57;88.64
71184;DHT22;58887;51.980;4.464;2022-12-07T07:40:19;3.98;88.14
71184;DHT22;58887;51.980;4.464;2022-12-07T07:42:47;4.20;87.44
71184;DHT22;58887;51.980;4.464;2022-12-07T07:45:14;4.28;86.59
71184;DHT22;58887;51.980;4.464;2022-12-07T07:47:39;4.36;86.67
71184;DHT22;58887;51.980;4.464;2022-12-07T07:50:05;4.53;86.56
71184;DHT22;58887;51.980;4.464;2022-12-07T07:52:31;4.66;86.19
71184;DHT22;58887;51.980;4.464;2022-12-07T07:54:56;4.67;86.12
71184;DHT22;58887;51.980;4.464;2022-12-07T07:57:22;4.70;86.34
71184;DHT22;58887;51.980;4.464;2022-12-07T07:59:47;4.78;86.21
71184;DHT22;58887;51.980;4.464;2022-12-07T08:02:17;4.92;86.04
71184;DHT22;58887;51.980;4.464;2022-12-07T08:04:44;4.98;85.80
71184;DHT22;58887;51.980;4.464;2022-12-07T08:07:10;5.02;85.65
71184;DHT22;58887;51.980;4.464;2022-12-07T08:09:36;5.07;85.37
71184;DHT22;58887;51.980;4.464;2022-12-07T08:12:01;5.16;85.27
71184;DHT22;58887;51.980;4.464;2022-12-07T08:14:27;5.24;85.06
71184;DHT22;58887;51.980;4.464;2022-12-07T08:16:54;5.18;84.74
71184;DHT22;58887;51.980;4.464;2022-12-07T08:19:20;5.02;84.69
71184;DHT22;58887;51.980;4.464;2022-12-07T08:21:45;4.95;84.66
71184;DHT22;58887;51.980;4.464;2022-12-07T08:24:11;4.89;84.67
71184;DHT22;58887;51.980;4.464;2022-12-07T08:26:36;4.88;84.68
71184;DHT22;58887;51.980;4.464;2022-12-07T08:29:02;4.94;84.79
71184;DHT22;58887;51.980;4.464;2022-12-07T08:31:28;4.91;84.51
71184;DHT22;58887;51.980;4.464;2022-12-07T08:33:53;4.80;84.48
71184;DHT22;58887;51.980;4.464;2022-12-07T08:36:19;4.75;84.48
71184;DHT22;58887;51.980;4.464;2022-12-07T08:38:45;4.73;84.59
71184;DHT22;58887;51.980;4.464;2022-12-07T08:41:10;4.73;84.75
71184;DHT22;58887;51.980;4.464;2022-12-07T08:43:36;4.77;84.75
71184;DHT22;58887;51.980;4.464;2022-12-07T08:46:28;4.78;84.63
71184;DHT22;58887;51.980;4.464;2022-12-07T08:49:02;4.87;84.86
71184;DHT22;58887;51.980;4.464;2022-12-07T08:51:28;4.97;84.98
71184;DHT22;58887;51.980;4.464;2022-12-07T08:53:58;5.05;84.98
71184;DHT22;58887;51.980;4.464;2022-12-07T08:56:25;5.32;84.78
71184;DHT22;58887;51.980;4.464;2022-12-07T08:58:50;5.26;84.58
71184;DHT22;58887;51.980;4.464;2022-12-07T09:01:16;5.35;84.97
71184;DHT22;58887;51.980;4.464;2022-12-07T09:03:42;5.53;84.84
71184;DHT22;58887;51.980;4.464;2022-12-07T09:06:08;5.60;84.72
71184;DHT22;58887;51.980;4.464;2022-12-07T09:08:42;5.76;84.74
71184;DHT22;58887;51.980;4.464;2022-12-07T09:11:08;5.94;84.56
71184;DHT22;58887;51.980;4.464;2022-12-07T09:13:34;6.14;84.75
71184;DHT22;58887;51.980;4.464;2022-12-07T09:15:59;6.29;84.89
71184;DHT22;58887;51.980;4.464;2022-12-07T09:18:24;6.36;84.97
71184;DHT22;58887;51.980;4.464;2022-12-07T09:20:50;6.39;85.02
71184;DHT22;58887;51.980;4.464;2022-12-07T09:23:16;6.35;84.73
71184;DHT22;58887;51.980;4.464;2022-12-07T09:25:42;6.45;84.66
71184;DHT22;58887;51.980;4.464;2022-12-07T09:28:08;6.34;84.01
71184;DHT22;58887;51.980;4.464;2022-12-07T09:30:33;6.28;84.26
71184;DHT22;58887;51.980;4.464;2022-12-07T09:32:59;6.32;84.12
71184;DHT22;58887;51.980;4.464;2022-12-07T09:35:25;6.29;83.97
71184;DHT22;58887;51.980;4.464;2022-12-07T09:37:51;6.49;83.92
71184;DHT22;58887;51.980;4.464;2022-12-07T09:40:20;6.53;83.09
71184;DHT22;58887;51.980;4.464;2022-12-07T09:42:52;6.49;83.50
71184;DHT22;58887;51.980;4.464;2022-12-07T09:45:27;6.65;83.59
71184;DHT22;58887;51.980;4.464;2022-12-07T09:47:58;6.71;83.51
71184;DHT22;58887;51.980;4.464;2022-12-07T09:50:26;6.82;83.74
71184;DHT22;58887;51.980;4.464;2022-12-07T09:52:58;7.07;83.15
71184;DHT22;58887;51.980;4.464;2022-12-07T09:55:29;7.08;83.03
71184;DHT22;58887;51.980;4.464;2022-12-07T09:57:57;7.11;83.24
71184;DHT22;58887;51.980;4.464;2022-12-07T10:00:24;6.96;82.59
71184;DHT22;58887;51.980;4.464;2022-12-07T10:03:02;7.14;82.90
71184;DHT22;58887;51.980;4.464;2022-12-07T10:05:36;7.48;82.70
71184;DHT22;58887;51.980;4.464;2022-12-07T10:08:03;7.97;81.19
71184;DHT22;58887;51.980;4.464;2022-12-07T10:10:32;8.14;80.33
71184;DHT22;58887;51.980;4.464;2022-12-07T10:13:04;7.97;79.40
71184;DHT22;58887;51.980;4.464;2022-12-07T10:18:21;8.09;78.27
71184;DHT22;58887;51.980;4.464;2022-12-07T10:21:03;8.47;78.51
71184;DHT22;58887;51.980;4.464;2022-12-07T10:23:29;8.65;77.38
71184;DHT22;58887;51.980;4.464;2022-12-07T10:25:55;8.67;78.52
71184;DHT22;58887;51.980;4.464;2022-12-07T10:28:21;8.67;78.42
71184;DHT22;58887;51.980;4.464;2022-12-07T10:30:57;8.57;78.88
71184;DHT22;58887;51.980;4.464;2022-12-07T10:33:47;8.50;79.33
71184;DHT22;58887;51.980;4.464;2022-12-07T10:38:58;8.37;80.33
71184;DHT22;58887;51.980;4.464;2022-12-07T10:41:24;8.29;80.15
71184;DHT22;58887;51.980;4.464;2022-12-07T10:43:53;8.34;80.29
71184;DHT22;58887;51.980;4.464;2022-12-07T10:46:45;8.41;80.19
71184;DHT22;58887;51.980;4.464;2022-12-07T10:49:32;8.58;80.92
71184;DHT22;58887;51.980;4.464;2022-12-07T10:55:33;9.81;75.94
71184;DHT22;58887;51.980;4.464;2022-12-07T10:58:23;9.81;75.00
71184;DHT22;58887;51.980;4.464;2022-12-07T11:06:39;9.39;73.18
71184;DHT22;58887;51.980;4.464;2022-12-07T11:17:44;9.64;74.16
71184;DHT22;58887;51.980;4.464;2022-12-07T11:26:31;10.45;71.63
71184;DHT22;58887;51.980;4.464;2022-12-07T11:32:22;9.88;71.45
71184;DHT22;58887;51.980;4.464;2022-12-07T11:37:46;9.39;71.86
71184;DHT22;58887;51.980;4.464;2022-12-07T11:40:38;8.30;74.23
71184;DHT22;58887;51.980;4.464;2022-12-07T11:46:07;6.49;81.68
71184;DHT22;58887;51.980;4.464;2022-12-07T11:51:38;6.36;83.82
71184;DHT22;58887;51.980;4.464;2022-12-07T11:54:15;6.45;83.52
71184;DHT22;58887;51.980;4.464;2022-12-07T11:56:43;6.57;83.67
71184;DHT22;58887;51.980;4.464;2022-12-07T11:59:17;6.76;81.83
71184;DHT22;58887;51.980;4.464;2022-12-07T12:01:56;6.96;81.37
71184;DHT22;58887;51.980;4.464;2022-12-07T12:06:58;7.30;82.86
71184;DHT22;58887;51.980;4.464;2022-12-07T12:09:35;7.47;81.74
71184;DHT22;58887;51.980;4.464;2022-12-07T12:15:15;8.19;79.69
71184;DHT22;58887;51.980;4.464;2022-12-07T12:18:11;8.41;77.65
71184;DHT22;58887;51.980;4.464;2022-12-07T12:20:46;8.74;77.78
71184;DHT22;58887;51.980;4.464;2022-12-07T12:23:25;8.96;78.63
71184;DHT22;58887;51.980;4.464;2022-12-07T12:25:59;8.95;77.40
71184;DHT22;58887;51.980;4.464;2022-12-07T12:28:40;8.92;75.74
71184;DHT22;58887;51.980;4.464;2022-12-07T12:31:16;8.92;77.82
71184;DHT22;58887;51.980;4.464;2022-12-07T12:33:59;9.12;77.56
71184;DHT22;58887;51.980;4.464;2022-12-07T12:36:45;9.33;76.97
71184;DHT22;58887;51.980;4.464;2022-12-07T12:39:17;9.23;76.75
71184;DHT22;58887;51.980;4.464;2022-12-07T12:46:52;9.02;78.01
71184;DHT22;58887;51.980;4.464;2022-12-07T12:51:58;9.15;76.60
71184;DHT22;58887;51.980;4.464;2022-12-07T12:54:34;9.18;77.51
71184;DHT22;58887;51.980;4.464;2022-12-07T12:57:26;9.18;78.07
71184;DHT22;58887;51.980;4.464;2022-12-07T13:18:34;8.07;73.74
71184;DHT22;58887;51.980;4.464;2022-12-07T13:23:38;7.41;76.11
71184;DHT22;58887;51.980;4.464;2022-12-07T13:26:35;7.50;75.91
71184;DHT22;58887;51.980;4.464;2022-12-07T13:34:29;7.55;76.78
71184;DHT22;58887;51.980;4.464;2022-12-07T13:36:56;7.59;76.59
71184;DHT22;58887;51.980;4.464;2022-12-07T13:39:26;7.56;76.25
71184;DHT22;58887;51.980;4.464;2022-12-07T13:42:06;7.61;76.71
71184;DHT22;58887;51.980;4.464;2022-12-07T13:44:34;7.50;75.90
71184;DHT22;58887;51.980;4.464;2022-12-07T13:47:12;7.64;75.78
71184;DHT22;58887;51.980;4.464;2022-12-07T13:49:53;7.85;77.00
71184;DHT22;58887;51.980;4.464;2022-12-07T13:52:29;8.07;76.89
71184;DHT22;58887;51.980;4.464;2022-12-07T13:55:14;8.20;76.46
71184;DHT22;58887;51.980;4.464;2022-12-07T13:57:40;8.29;74.95
71184;DHT22;58887;51.980;4.464;2022-12-07T14:00:19;8.50;74.78
71184;DHT22;58887;51.980;4.464;2022-12-07T14:03:44;8.61;76.15
71184;DHT22;58887;51.980;4.464;2022-12-07T14:05:45;8.72;76.51
71184;DHT22;58887;51.980;4.464;2022-12-07T14:15:56;8.43;74.96
71184;DHT22;58887;51.980;4.464;2022-12-07T14:18:41;8.27;73.98
71184;DHT22;58887;51.980;4.464;2022-12-07T14:21:16;8.19;74.61
71184;DHT22;58887;51.980;4.464;2022-12-07T14:23:45;8.27;74.39
71184;DHT22;58887;51.980;4.464;2022-12-07T14:26:20;8.22;75.49
71184;DHT22;58887;51.980;4.464;2022-12-07T14:28:47;8.09;75.05
71184;DHT22;58887;51.980;4.464;2022-12-07T14:31:14;8.12;76.36
71184;DHT22;58887;51.980;4.464;2022-12-07T14:33:41;8.14;76.03
71184;DHT22;58887;51.980;4.464;2022-12-07T14:36:14;8.14;75.79
71184;DHT22;58887;51.980;4.464;2022-12-07T14:38:40;8.29;74.58
71184;DHT22;58887;51.980;4.464;2022-12-07T14:41:13;8.16;76.07
71184;DHT22;58887;51.980;4.464;2022-12-07T14:43:58;8.12;76.89
71184;DHT22;58887;51.980;4.464;2022-12-07T14:46:23;8.14;75.98
71184;DHT22;58887;51.980;4.464;2022-12-07T14:48:49;8.07;76.71
71184;DHT22;58887;51.980;4.464;2022-12-07T14:51:15;8.02;76.56
71184;DHT22;58887;51.980;4.464;2022-12-07T14:53:48;8.13;75.87
71184;DHT22;58887;51.980;4.464;2022-12-07T14:56:15;7.95;76.14
71184;DHT22;58887;51.980;4.464;2022-12-07T14:58:41;7.76;77.12
71184;DHT22;58887;51.980;4.464;2022-12-07T15:01:06;7.55;77.67
71184;DHT22;58887;51.980;4.464;2022-12-07T15:03:32;7.50;78.28
71184;DHT22;58887;51.980;4.464;2022-12-07T15:06:00;7.38;79.01
71184;DHT22;58887;51.980;4.464;2022-12-07T15:08:26;7.41;78.85
71184;DHT22;58887;51.980;4.464;2022-12-07T15:10:52;7.48;79.20
71184;DHT22;58887;51.980;4.464;2022-12-07T15:13:17;7.51;79.06
71184;DHT22;58887;51.980;4.464;2022-12-07T15:16:17;7.48;78.98
71184;DHT22;58887;51.980;4.464;2022-12-07T15:18:44;7.48;78.81
71184;DHT22;58887;51.980;4.464;2022-12-07T15:21:14;7.55;78.89
71184;DHT22;58887;51.980;4.464;2022-12-07T15:23:40;7.43;78.69
71184;DHT22;58887;51.980;4.464;2022-12-07T15:26:05;7.31;79.34
71184;DHT22;58887;51.980;4.464;2022-12-07T15:28:31;7.27;79.24
71184;DHT22;58887;51.980;4.464;2022-12-07T15:30:56;7.32;79.37
71184;DHT22;58887;51.980;4.464;2022-12-07T15:33:22;7.32;79.26
71184;DHT22;58887;51.980;4.464;2022-12-07T15:35:47;7.18;79.99
71184;DHT22;58887;51.980;4.464;2022-12-07T15:38:13;7.18;80.00
71184;DHT22;58887;51.980;4.464;2022-12-07T15:40:39;7.13;80.14
71184;DHT22;58887;51.980;4.464;2022-12-07T15:43:04;7.06;80.37
71184;DHT22;58887;51.980;4.464;2022-12-07T15:45:30;7.03;80.45
71184;DHT22;58887;51.980;4.464;2022-12-07T15:47:55;7.01;80.61
71184;DHT22;58887;51.980;4.464;2022-12-07T15:50:22;6.94;79.61
71184;DHT22;58887;51.980;4.464;2022-12-07T15:52:48;6.94;80.30
71184;DHT22;58887;51.980;4.464;2022-12-07T15:55:14;6.76;80.08
71184;DHT22;58887;51.980;4.464;2022-12-07T15:57:39;6.84;80.08
71184;DHT22;58887;51.980;4.464;2022-12-07T16:00:07;6.80;79.28
71184;DHT22;58887;51.980;4.464;2022-12-07T16:02:33;6.87;80.07
71184;DHT22;58887;51.980;4.464;2022-12-07T16:04:58;6.87;78.96
71184;DHT22;58887;51.980;4.464;2022-12-07T16:07:24;6.93;79.26
71184;DHT22;58887;51.980;4.464;2022-12-07T16:09:50;6.97;78.58
71184;DHT22;58887;51.980;4.464;2022-12-07T16:12:15;6.90;76.98
71184;DHT22;58887;51.980;4.464;2022-12-07T16:14:42;6.90;76.12
71184;DHT22;58887;51.980;4.464;2022-12-07T16:17:08;7.04;75.63
71184;DHT22;58887;51.980;4.464;2022-12-07T16:19:35;7.04;75.78
71184;DHT22;58887;51.980;4.464;2022-12-07T16:22:01;6.96;75.77
71184;DHT22;58887;51.980;4.464;2022-12-07T16:24:26;6.93;75.53
71184;DHT22;58887;51.980;4.464;2022-12-07T16:26:52;6.99;76.27
71184;DHT22;58887;51.980;4.464;2022-12-07T16:29:20;6.92;75.03
71184;DHT22;58887;51.980;4.464;2022-12-07T16:31:46;6.90;75.23
71184;DHT22;58887;51.980;4.464;2022-12-07T16:34:12;6.99;75.49
71184;DHT22;58887;51.980;4.464;2022-12-07T16:36:37;6.90;76.14
71184;DHT22;58887;51.980;4.464;2022-12-07T16:39:04;6.89;75.97
71184;DHT22;58887;51.980;4.464;2022-12-07T16:41:30;6.87;76.44
71184;DHT22;58887;51.980;4.464;2022-12-07T16:43:55;6.92;76.91
71184;DHT22;58887;51.980;4.464;2022-12-07T16:46:21;6.90;77.06
71184;DHT22;58887;51.980;4.464;2022-12-07T16:48:47;6.97;77.17
71184;DHT22;58887;51.980;4.464;2022-12-07T16:51:13;6.99;77.24
71184;DHT22;58887;51.980;4.464;2022-12-07T16:53:41;6.93;77.38
71184;DHT22;58887;51.980;4.464;2022-12-07T16:56:12;6.94;77.58
71184;DHT22;58887;51.980;4.464;2022-12-07T16:58:40;7.06;77.26
71184;DHT22;58887;51.980;4.464;2022-12-07T17:01:19;6.97;77.51
71184;DHT22;58887;51.980;4.464;2022-12-07T17:03:45;6.96;77.47
71184;DHT22;58887;51.980;4.464;2022-12-07T17:06:15;6.80;78.21
71184;DHT22;58887;51.980;4.464;2022-12-07T17:08:41;6.77;78.62
71184;DHT22;58887;51.980;4.464;2022-12-07T17:11:12;6.79;78.66
71184;DHT22;58887;51.980;4.464;2022-12-07T17:13:37;6.84;79.04
71184;DHT22;58887;51.980;4.464;2022-12-07T17:16:21;6.83;79.29
71184;DHT22;58887;51.980;4.464;2022-12-07T17:18:47;6.73;79.76
71184;DHT22;58887;51.980;4.464;2022-12-07T17:21:13;6.66;79.90
71184;DHT22;58887;51.980;4.464;2022-12-07T17:23:39;6.69;79.62
71184;DHT22;58887;51.980;4.464;2022-12-07T17:26:06;6.75;79.02
71184;DHT22;58887;51.980;4.464;2022-12-07T17:28:33;6.72;79.35
71184;DHT22;58887;51.980;4.464;2022-12-07T17:30:59;6.63;78.91
71184;DHT22;58887;51.980;4.464;2022-12-07T17:33:24;6.63;79.23
71184;DHT22;58887;51.980;4.464;2022-12-07T17:35:50;6.76;79.16
71184;DHT22;58887;51.980;4.464;2022-12-07T17:38:16;6.71;78.92
71184;DHT22;58887;51.980;4.464;2022-12-07T17:40:41;6.62;78.45
71184;DHT22;58887;51.980;4.464;2022-12-07T17:43:07;6.73;78.10
71184;DHT22;58887;51.980;4.464;2022-12-07T17:45:33;6.77;78.28
71184;DHT22;58887;51.980;4.464;2022-12-07T17:48:00;6.76;77.74
71184;DHT22;58887;51.980;4.464;2022-12-07T17:50:26;6.77;77.89
71184;DHT22;58887;51.980;4.464;2022-12-07T17:53:11;6.80;77.72
71184;DHT22;58887;51.980;4.464;2022-12-07T17:55:37;6.79;77.47
71184;DHT22;58887;51.980;4.464;2022-12-07T17:58:03;6.83;78.04
71184;DHT22;58887;51.980;4.464;2022-12-07T18:00:29;6.87;77.96
71184;DHT22;58887;51.980;4.464;2022-12-07T18:02:55;6.80;78.05
71184;DHT22;58887;51.980;4.464;2022-12-07T18:05:20;6.72;78.19
71184;DHT22;58887;51.980;4.464;2022-12-07T18:07:46;6.77;77.94